SBSL/SLZ METAR and TAF weather

Enter ICAO airport designator
Station Type Date Time Source
SBSL METAR 2019/05/19 21:00 UTC NOAA

SBSL 192100Z 06008KT CAVOK 28/25 Q1010


Station Type Date Time Source
SBSL Decoded METAR 2019/05/19 21:00 UTC NOAA

Sao Luiz Aeroporto , Brazil (SBSL) 02-36S 044-14W 53M
May 19, 2019 - 05:00 PM EDT / 2019.05.19 2100 UTC
Wind: from the ENE (060 degrees) at 9 MPH (8 KT):0
Visibility: greater than 7 mile(s):0
Temperature: 82 F (28 C)
Dew Point: 77 F (25 C)
Relative Humidity: 83%
Pressure (altimeter): 29.83 in. Hg (1010 hPa)
ob: SBSL 192100Z 06008KT CAVOK 28/25 Q1010
cycle: 21

Station Type Date Time Source
SBSL TAF 2019/05/19 18:33 UTC NOAA

TAF SBSL 191600Z 1918/2018 03015KT 9999 BKN017 FEW025TCU TX30/1916Z TN24/2006Z
BECMG 1922/1924 06008KT FEW017
BECMG 2014/2016 03015KT BKN020 FEW025TCU
RMK PEH

Example: see airport list